Kezdőlap
METAR-TAF:

METAR-TAF

Repülőterek :

Ottumwa Industrial Airport

Ottumwa, Iowa, Amerikai Egyesült Államok

földrajzi szélesség: 41-06-24N, földrajzi hosszúság: 092-26-53W, magasság: 258 m

Jelenlegi meteorológiai megfigyelések

A jelentés 55 perccel ezelõtt készült, 13:53 UTC
Nyugat-délnyugati szél 6 kt
Hőmérséklet 27°C
Páratartalom 79%
Légköri nyomás 1018 hPa
Látótávolság: 14.5 km
Derült ég

METAR: KOTM 281353Z AUTO 24006KT 9SM CLR 27/23 A3005 RMK AO2 SLP168 T02670233

Idő: 09:48 (14:48 UTC)

Előrejelzés

A jelentés 3 órával és 27 perccel ezelõtt készült, 11:21 UTC
Az előrejelzés 28-én 12 óra UTC és 29-én 12 óra UTC között érvényes
Délnyugati szél 9 kt
Látótávolság: 10 km
Szórványos felhőzet 25000 lábon

TAF: KOTM 281121Z 2812/2912 23009KT P6SM SCT250

Meteorológiai megfigyelések és előrejelzések több, mint 4000 repülőtéren (METAR és TAF jelentéseket).

A térképen piros és sárga pontok jelzik az elérhető meteorológiai állomásokat.

Mozgassa az egeret a pont fölött, hogy megjelenjen az állomás neve.

Azután kattintson az időjárási megfigyelések és előrejelzések megtekintéséhez.

A térkép megváltoztatása: kattintson a fekete keresztel jelölt zöld gombra ráközelítéshez, a vonallal jelölt zöld gombra távolításhoz, vagy a zöld nyilakra a szomszédos térképek eléréséhez.


METAR-TAF: